createdAt,value
2022-10-09T00:00:02.337Z,100222.84
2022-10-09T00:01:34.407Z,100228.88
2022-10-09T00:03:06.765Z,100229.75
2022-10-09T00:04:39.589Z,100230.66
2022-10-09T00:06:14.607Z,100223.75
2022-10-09T00:07:46.576Z,100227.22
2022-10-09T00:09:19.729Z,100219.41
2022-10-09T00:10:51.824Z,100208.22
2022-10-09T00:12:23.944Z,100217.69
2022-10-09T00:13:56.816Z,100222.00
2022-10-09T00:15:28.926Z,100220.25
2022-10-09T00:17:01.021Z,100213.34
2022-10-09T00:18:33.890Z,100216.84
2022-10-09T00:20:06.859Z,100214.25
2022-10-09T00:21:38.910Z,100209.97
2022-10-09T00:23:12.259Z,100211.72
2022-10-09T00:24:44.247Z,100213.47
2022-10-09T00:26:16.722Z,100209.19
2022-10-09T00:27:49.696Z,100200.63
2022-10-09T00:29:21.679Z,100205.78
2022-10-09T00:30:54.202Z,100202.38
2022-10-09T00:32:26.493Z,100198.06
2022-10-09T00:33:58.481Z,100205.78
2022-10-09T00:35:32.682Z,100201.47
2022-10-09T00:37:04.705Z,100196.31
2022-10-09T00:38:37.076Z,100203.25
2022-10-09T00:40:09.291Z,100200.66
2022-10-09T00:41:41.548Z,100207.56
2022-10-09T00:43:18.854Z,100206.69
2022-10-09T00:44:54.644Z,100198.13
2022-10-09T00:46:33.908Z,100209.28
2022-10-09T00:48:07.884Z,100207.56
2022-10-09T00:49:42.713Z,100205.88
2022-10-09T00:51:14.676Z,100205.03
2022-10-09T00:52:47.988Z,100200.72
2022-10-09T00:54:24.192Z,100195.50
2022-10-09T00:55:56.585Z,100192.09
2022-10-09T00:57:29.062Z,100192.97
2022-10-09T00:59:01.562Z,100194.69
2022-10-09T01:00:33.567Z,100191.25
2022-10-09T01:02:05.823Z,100194.69
2022-10-09T01:03:40.628Z,100195.53
2022-10-09T01:05:13.871Z,100193.81
2022-10-09T01:07:17.964Z,100191.19
2022-10-09T01:09:23.583Z,100191.13
2022-10-09T01:11:10.054Z,100192.03
2022-10-09T01:12:51.921Z,100196.38
2022-10-09T01:14:30.149Z,100193.84
2022-10-09T01:16:04.053Z,100195.59
2022-10-09T01:17:48.596Z,100199.00
2022-10-09T01:19:36.416Z,100200.78
2022-10-09T01:21:17.571Z,100200.78
2022-10-09T01:23:04.321Z,100196.47
2022-10-09T01:24:41.861Z,100200.75
2022-10-09T01:26:17.164Z,100196.47
2022-10-09T01:27:49.313Z,100193.88
2022-10-09T01:29:22.036Z,100193.88
2022-10-09T01:30:54.093Z,100197.34
2022-10-09T01:32:33.670Z,100195.66
2022-10-09T01:34:06.133Z,100193.94
2022-10-09T01:35:39.246Z,100194.81
2022-10-09T01:37:11.604Z,100190.53
2022-10-09T01:38:44.820Z,100199.13
2022-10-09T01:40:17.863Z,100192.22
2022-10-09T01:41:51.646Z,100201.69
2022-10-09T01:43:23.610Z,100193.13
2022-10-09T01:44:55.543Z,100195.69
2022-10-09T01:46:32.489Z,100198.25
2022-10-09T01:48:05.148Z,100196.56
2022-10-09T01:50:07.529Z,100200.00
2022-10-09T01:51:54.140Z,100206.91
2022-10-09T01:53:26.605Z,100206.03
2022-10-09T01:55:04.415Z,100205.19
2022-10-09T01:56:39.510Z,100202.59
2022-10-09T01:58:21.172Z,100208.63
2022-10-09T01:59:53.511Z,100212.09
2022-10-09T02:01:34.180Z,100207.78
2022-10-09T02:03:10.336Z,100203.47
2022-10-09T02:04:43.824Z,100203.47
2022-10-09T02:06:16.378Z,100206.03
2022-10-09T02:07:48.466Z,100207.81
2022-10-09T02:09:20.517Z,100207.84
2022-10-09T02:10:55.525Z,100200.09
2022-10-09T02:12:28.549Z,100206.09
2022-10-09T02:14:00.631Z,100204.41
2022-10-09T02:15:42.310Z,100205.25
2022-10-09T02:17:22.590Z,100202.66
2022-10-09T02:19:17.844Z,100206.09
2022-10-09T02:20:55.491Z,100211.28
2022-10-09T02:22:31.542Z,100206.09
2022-10-09T02:24:07.501Z,100212.16
2022-10-09T02:25:39.604Z,100213.03
2022-10-09T02:27:12.818Z,100212.16
2022-10-09T02:28:46.223Z,100214.72
2022-10-09T02:30:18.217Z,100217.28
2022-10-09T02:31:50.276Z,100211.31
2022-10-09T02:33:33.432Z,100219.03
2022-10-09T02:35:05.795Z,100213.84
2022-10-09T02:36:38.459Z,100221.59
2022-10-09T02:38:10.447Z,100215.56
2022-10-09T02:39:43.957Z,100225.03
2022-10-09T02:41:15.795Z,100225.00
2022-10-09T02:42:47.918Z,100223.31
2022-10-09T02:44:20.160Z,100223.31
2022-10-09T02:45:52.203Z,100225.91
2022-10-09T02:47:24.252Z,100225.91
2022-10-09T02:48:56.158Z,100237.97
2022-10-09T02:50:28.313Z,100228.50
2022-10-09T02:52:00.332Z,100231.97
2022-10-09T02:53:32.407Z,100237.97
2022-10-09T02:55:04.671Z,100236.25
2022-10-09T02:56:38.973Z,100238.81
2022-10-09T02:58:11.284Z,100238.81
2022-10-09T02:59:45.623Z,100238.81
2022-10-09T03:01:18.104Z,100248.34
2022-10-09T03:02:50.462Z,100246.66
2022-10-09T03:04:22.632Z,100250.97
2022-10-09T03:06:11.792Z,100251.84
2022-10-09T03:07:51.421Z,100254.44
2022-10-09T03:09:29.157Z,100256.19
2022-10-09T03:11:03.581Z,100254.44
2022-10-09T03:12:35.752Z,100257.06
2022-10-09T03:14:07.710Z,100252.75
2022-10-09T03:15:39.769Z,100257.03
2022-10-09T03:17:11.726Z,100256.22
2022-10-09T03:18:46.862Z,100263.94
2022-10-09T03:20:18.915Z,100262.22
2022-10-09T03:23:22.635Z,100263.06
2022-10-09T03:24:54.732Z,100269.94
2022-10-09T03:26:27.704Z,100263.09
2022-10-09T03:27:59.675Z,100268.25
2022-10-09T03:29:31.684Z,100270.84
2022-10-09T03:31:04.201Z,100266.56
2022-10-09T03:32:36.369Z,100269.16
2022-10-09T03:34:08.457Z,100265.69
2022-10-09T03:35:41.722Z,100265.69
2022-10-09T03:37:13.699Z,100263.13
2022-10-09T03:38:45.710Z,100266.56
2022-10-09T03:40:17.690Z,100270.88
2022-10-09T03:41:49.736Z,100260.59
2022-10-09T03:43:21.696Z,100260.59
2022-10-09T03:44:54.495Z,100267.44
2022-10-09T03:46:26.535Z,100271.75
2022-10-09T03:47:58.654Z,100273.47
2022-10-09T03:49:30.662Z,100260.56
2022-10-09T03:51:03.018Z,100267.44
2022-10-09T03:52:36.647Z,100268.28
2022-10-09T03:54:08.677Z,100265.72
2022-10-09T03:55:40.810Z,100262.28
2022-10-09T03:57:12.904Z,100263.13
2022-10-09T03:58:44.910Z,100271.75
2022-10-09T04:00:17.184Z,100272.63
2022-10-09T04:01:49.250Z,100275.16
2022-10-09T04:03:21.842Z,100267.44
2022-10-09T04:04:53.957Z,100270.88
2022-10-09T04:06:25.942Z,100269.19
2022-10-09T04:07:57.935Z,100265.75
2022-10-09T04:09:29.860Z,100269.19
2022-10-09T04:11:02.173Z,100267.47
2022-10-09T04:12:34.324Z,100266.59
2022-10-09T04:14:07.067Z,100264.03
2022-10-09T04:15:39.140Z,100258.84
2022-10-09T04:17:11.148Z,100265.72
2022-10-09T04:18:44.517Z,100267.44
2022-10-09T04:21:49.216Z,100264.00
2022-10-09T04:23:23.618Z,100265.75
2022-10-09T04:24:55.618Z,100265.72
2022-10-09T04:26:27.668Z,100269.19
2022-10-09T04:27:59.611Z,100272.63
2022-10-09T04:29:31.614Z,100270.03
2022-10-09T04:31:04.621Z,100269.19
2022-10-09T04:32:36.628Z,100270.06
2022-10-09T04:34:08.649Z,100276.06
2022-10-09T04:35:44.593Z,100274.34
2022-10-09T04:37:16.829Z,100276.06
2022-10-09T04:38:48.869Z,100273.50
2022-10-09T04:40:20.853Z,100269.19
2022-10-09T04:41:52.923Z,100271.78
2022-10-09T04:43:25.061Z,100270.03
2022-10-09T04:44:57.030Z,100280.38
2022-10-09T04:46:29.095Z,100275.19
2022-10-09T04:48:01.148Z,100276.91
2022-10-09T04:49:33.244Z,100279.47
2022-10-09T04:51:07.812Z,100283.78
2022-10-09T04:52:39.827Z,100278.63
2022-10-09T04:54:12.678Z,100279.47
2022-10-09T04:55:46.490Z,100281.22
2022-10-09T04:57:18.662Z,100280.31
2022-10-09T04:58:53.099Z,100288.06
2022-10-09T05:00:25.154Z,100284.63
2022-10-09T05:02:00.361Z,100284.63
2022-10-09T05:03:32.529Z,100287.19
2022-10-09T05:05:04.960Z,100286.31
2022-10-09T05:06:36.996Z,100290.59
2022-10-09T05:08:09.102Z,100297.47
2022-10-09T05:09:41.324Z,100294.03
2022-10-09T05:11:19.146Z,100292.28
2022-10-09T05:12:51.462Z,100295.75
2022-10-09T05:14:23.775Z,100294.00
2022-10-09T05:15:55.793Z,100292.25
2022-10-09T05:17:28.199Z,100287.94
2022-10-09T05:19:00.941Z,100289.66
2022-10-09T05:20:32.920Z,100292.22
2022-10-09T05:22:04.936Z,100296.47
2022-10-09T05:23:37.012Z,100286.16
2022-10-09T05:26:46.885Z,100288.69
2022-10-09T05:28:18.997Z,100302.44
2022-10-09T05:29:51.014Z,100298.94
2022-10-09T05:31:26.012Z,100295.47
2022-10-09T05:32:58.176Z,100293.75
2022-10-09T05:34:30.558Z,100300.63
2022-10-09T05:36:05.364Z,100306.56
2022-10-09T05:37:37.359Z,100316.00
2022-10-09T05:39:09.370Z,100309.06
2022-10-09T05:40:52.463Z,100312.47
2022-10-09T05:42:24.481Z,100317.63
2022-10-09T05:44:01.359Z,100314.09
2022-10-09T05:45:33.440Z,100314.03
2022-10-09T05:47:05.476Z,100317.44
2022-10-09T05:48:39.275Z,100319.94
2022-10-09T05:50:11.269Z,100322.50
2022-10-09T05:51:43.371Z,100324.13
2022-10-09T05:55:02.201Z,100320.56
2022-10-09T05:56:36.623Z,100323.06
2022-10-09T05:58:08.942Z,100320.41
2022-10-09T05:59:40.959Z,100328.13
2022-10-09T06:01:13.164Z,100324.56
2022-10-09T06:02:45.216Z,100322.81
2022-10-09T06:04:23.269Z,100327.84
2022-10-09T06:06:03.824Z,100332.00
2022-10-09T06:07:35.829Z,100328.53
2022-10-09T06:09:10.768Z,100328.47
2022-10-09T06:10:43.059Z,100334.41
2022-10-09T06:12:15.428Z,100328.25
2022-10-09T06:13:48.530Z,100333.28
2022-10-09T06:15:20.894Z,100334.94
2022-10-09T06:16:53.254Z,100327.84
2022-10-09T06:18:28.265Z,100332.00
2022-10-09T06:20:00.488Z,100330.13
2022-10-09T06:21:32.742Z,100326.50
2022-10-09T06:23:05.182Z,100329.81
2022-10-09T06:24:37.279Z,100328.78
2022-10-09T06:26:11.887Z,100337.22
2022-10-09T06:27:44.029Z,100336.22
2022-10-09T06:29:16.236Z,100334.31
2022-10-09T06:30:49.382Z,100337.56
2022-10-09T06:32:21.729Z,100340.91
2022-10-09T06:33:54.863Z,100345.97
2022-10-09T06:35:27.282Z,100333.72
2022-10-09T06:36:59.555Z,100343.09
2022-10-09T06:38:31.955Z,100352.44
2022-10-09T06:40:04.524Z,100345.34
2022-10-09T06:41:36.904Z,100353.00
2022-10-09T06:43:09.188Z,100351.13
2022-10-09T06:44:43.781Z,100349.19
2022-10-09T06:46:16.186Z,100355.94
2022-10-09T06:47:48.551Z,100346.25
2022-10-09T06:49:20.860Z,100346.97
2022-10-09T06:50:53.170Z,100338.16
2022-10-09T06:52:25.667Z,100343.16
2022-10-09T06:53:59.909Z,100345.56
2022-10-09T06:55:33.264Z,100348.84
2022-10-09T06:57:05.101Z,100352.00
2022-10-09T07:00:10.875Z,100343.97
2022-10-09T07:01:43.520Z,100350.69
2022-10-09T07:03:15.920Z,100341.81
2022-10-09T07:04:48.359Z,100342.56
2022-10-09T07:06:25.914Z,100343.22
2022-10-09T07:07:58.218Z,100347.41
2022-10-09T07:09:30.538Z,100344.59
2022-10-09T07:11:12.195Z,100346.91
2022-10-09T07:12:44.570Z,100349.41
2022-10-09T07:14:16.936Z,100350.94
2022-10-09T07:15:49.519Z,100348.16
2022-10-09T07:17:21.884Z,100348.84
2022-10-09T07:18:54.265Z,100355.56
2022-10-09T07:20:26.324Z,100349.31
2022-10-09T07:21:58.531Z,100347.38
2022-10-09T07:23:31.893Z,100358.41
2022-10-09T07:25:04.185Z,100352.94
2022-10-09T07:26:38.680Z,100355.47
2022-10-09T07:28:11.040Z,100358.88
2022-10-09T07:29:43.325Z,100347.47
2022-10-09T07:31:16.127Z,100349.84
2022-10-09T07:32:48.705Z,100341.88
2022-10-09T07:34:21.122Z,100346.94
2022-10-09T07:35:57.451Z,100339.75
2022-10-09T07:37:29.900Z,100332.69
2022-10-09T07:39:02.366Z,100335.91
2022-10-09T07:40:37.649Z,100338.97
2022-10-09T07:42:09.920Z,100338.91
2022-10-09T07:43:43.100Z,100335.13
2022-10-09T07:45:15.349Z,100341.00
2022-10-09T07:46:50.709Z,100342.41
2022-10-09T07:48:22.974Z,100344.88
2022-10-09T07:49:55.423Z,100340.41
2022-10-09T08:15:41.111Z,100340.09
2022-10-09T08:17:13.571Z,100339.22
2022-10-09T08:18:45.956Z,100333.72
2022-10-09T08:20:18.196Z,100338.72
2022-10-09T08:21:50.667Z,100338.41
2022-10-09T08:23:22.926Z,100337.19
2022-10-09T08:24:55.231Z,100338.53
2022-10-09T08:26:31.292Z,100336.53
2022-10-09T08:28:04.831Z,100338.03
2022-10-09T08:29:40.241Z,100342.16
2022-10-09T08:31:17.291Z,100336.53
2022-10-09T08:32:49.776Z,100343.44
2022-10-09T08:34:22.266Z,100336.16
2022-10-09T08:35:54.830Z,100329.88
2022-10-09T08:37:27.097Z,100339.19
2022-10-09T08:38:59.901Z,100338.88
2022-10-09T08:41:19.819Z,100336.53
2022-10-09T08:44:39.117Z,100332.59
2022-10-09T08:46:22.905Z,100323.47
2022-10-09T08:47:57.061Z,100329.28
2022-10-09T08:49:37.611Z,100326.53
2022-10-09T08:51:16.336Z,100330.56
2022-10-09T08:53:08.766Z,100330.31
2022-10-09T08:54:41.232Z,100319.69
2022-10-09T08:56:15.263Z,100327.13
2022-10-09T08:57:51.972Z,100322.59
2022-10-09T08:59:24.234Z,100327.47
2022-10-09T09:01:03.633Z,100322.53
2022-10-09T09:02:52.869Z,100326.47
2022-10-09T09:04:45.694Z,100317.34
2022-10-09T09:06:26.944Z,100322.25
2022-10-09T09:08:05.421Z,100323.88
2022-10-09T09:09:59.302Z,100322.63
2022-10-09T09:11:43.463Z,100316.16
2022-10-09T09:13:43.547Z,100319.47
2022-10-09T09:15:34.161Z,100316.78
2022-10-09T09:17:24.561Z,100313.06
2022-10-09T09:19:18.545Z,100317.03
2022-10-09T09:20:55.854Z,100312.34
2022-10-09T09:22:28.501Z,100312.22
2022-10-09T09:24:04.083Z,100315.50
2022-10-09T09:25:37.947Z,100321.53
2022-10-09T09:27:14.746Z,100317.66
2022-10-09T09:28:49.783Z,100313.09
2022-10-09T09:30:25.783Z,100309.38
2022-10-09T09:32:00.129Z,100308.44
2022-10-09T09:34:05.067Z,100314.91
2022-10-09T09:36:03.271Z,100313.63
2022-10-09T09:37:37.853Z,100311.00
2022-10-09T09:40:07.860Z,100303.56
2022-10-09T09:41:06.282Z,100308.84
2022-10-09T09:42:38.678Z,100304.28
2022-10-09T09:44:12.350Z,100309.16
2022-10-09T09:45:48.402Z,100308.06
2022-10-09T09:47:45.015Z,100301.25
2022-10-09T09:49:23.784Z,100300.16
2022-10-09T09:51:16.119Z,100300.72
2022-10-09T09:52:48.643Z,100300.53
2022-10-09T09:54:29.036Z,100289.59
2022-10-09T09:56:01.514Z,100297.56
2022-10-09T09:57:37.593Z,100304.19
2022-10-09T09:59:34.760Z,100290.69
2022-10-09T10:01:08.045Z,100298.69
2022-10-09T10:02:40.200Z,100300.69
2022-10-09T10:04:19.978Z,100294.41
2022-10-09T10:05:52.324Z,100297.13
2022-10-09T10:07:35.861Z,100286.25
2022-10-09T10:09:18.824Z,100292.97
2022-10-09T10:10:53.915Z,100291.09
2022-10-09T10:12:26.155Z,100297.97
2022-10-09T10:13:58.591Z,100292.44
2022-10-09T10:15:33.250Z,100298.03
2022-10-09T10:17:05.525Z,100298.88
2022-10-09T10:18:42.836Z,100292.34
2022-10-09T10:20:18.646Z,100300.75
2022-10-09T10:21:56.876Z,100299.50
2022-10-09T10:23:55.643Z,100292.47
2022-10-09T10:25:33.487Z,100297.47
2022-10-09T10:27:34.555Z,100293.66
2022-10-09T10:29:20.517Z,100294.91
2022-10-09T10:30:53.133Z,100292.75
2022-10-09T10:33:04.384Z,100291.56
2022-10-09T10:34:44.245Z,100295.72
2022-10-09T10:36:16.675Z,100293.41
2022-10-09T10:38:10.514Z,100293.84
2022-10-09T10:39:42.734Z,100285.28
2022-10-09T10:41:24.942Z,100287.47
2022-10-09T10:43:03.048Z,100281.31
2022-10-09T10:44:51.233Z,100287.94
2022-10-09T10:46:26.010Z,100276.72
2022-10-09T10:47:59.383Z,100283.69
2022-10-09T10:49:33.851Z,100285.97
2022-10-09T10:51:44.748Z,100271.63
2022-10-09T10:53:32.344Z,100272.66
2022-10-09T10:55:21.596Z,100270.63
2022-10-09T10:57:25.117Z,100267.88
2022-10-09T10:59:21.599Z,100276.53
2022-10-09T11:01:05.509Z,100269.28
2022-10-09T11:02:47.719Z,100273.81
2022-10-09T11:04:23.222Z,100265.06
2022-10-09T11:06:19.524Z,100266.38
2022-10-09T11:08:16.231Z,100265.25
2022-10-09T11:10:06.912Z,100261.59
2022-10-09T11:13:41.932Z,100251.41
2022-10-09T11:15:27.129Z,100250.25
2022-10-09T11:17:11.110Z,100246.59
2022-10-09T11:19:11.908Z,100253.00
2022-10-09T11:21:22.163Z,100244.34
2022-10-09T11:23:11.803Z,100242.25
2022-10-09T11:24:58.317Z,100240.34
2022-10-09T11:27:03.136Z,100236.56
2022-10-09T11:28:41.167Z,100234.69
2022-10-09T11:30:15.933Z,100235.44
2022-10-09T11:31:57.883Z,100234.28
2022-10-09T11:33:39.131Z,100234.47
2022-10-09T11:35:25.812Z,100230.91
2022-10-09T11:36:59.685Z,100221.94
2022-10-09T11:38:37.132Z,100231.66
2022-10-09T11:40:18.730Z,100226.16
2022-10-09T11:43:26.001Z,100219.28
2022-10-09T11:45:03.528Z,100224.47
2022-10-09T11:47:04.701Z,100212.84
2022-10-09T11:49:08.545Z,100220.47
2022-10-09T11:50:53.609Z,100209.06
2022-10-09T11:52:47.366Z,100212.47
2022-10-09T11:54:22.205Z,100214.94
2022-10-09T11:56:32.897Z,100209.53
2022-10-09T11:58:25.068Z,100211.53
2022-10-09T12:00:07.850Z,100217.88
2022-10-09T12:01:45.171Z,100212.31
2022-10-09T12:03:33.712Z,100213.81
2022-10-09T12:05:19.498Z,100214.56
2022-10-09T12:06:55.100Z,100211.28
2022-10-09T12:08:27.987Z,100210.31
2022-10-09T12:10:08.974Z,100211.91
2022-10-09T12:11:41.493Z,100205.66
2022-10-09T12:13:44.672Z,100205.28
2022-10-09T12:15:29.505Z,100206.22
2022-10-09T12:17:02.320Z,100199.63
2022-10-09T12:18:37.642Z,100203.03
2022-10-09T12:20:19.231Z,100198.72
2022-10-09T12:21:57.466Z,100200.47
2022-10-09T12:23:32.886Z,100208.41
2022-10-09T12:25:29.162Z,100206.63
2022-10-09T12:27:03.736Z,100204.75
2022-10-09T12:28:40.107Z,100206.97
2022-10-09T12:30:15.075Z,100203.81
2022-10-09T12:31:47.992Z,100205.59
2022-10-09T12:33:31.158Z,100207.84
2022-10-09T12:35:15.414Z,100199.38
2022-10-09T12:36:47.810Z,100195.94
2022-10-09T12:38:26.576Z,100206.72
2022-10-09T12:40:09.700Z,100200.38
2022-10-09T12:41:44.479Z,100202.84
2022-10-09T12:43:19.517Z,100202.72
2022-10-09T12:44:54.540Z,100203.38
2022-10-09T12:46:27.525Z,100200.06
2022-10-09T12:48:01.640Z,100199.81
2022-10-09T12:49:34.239Z,100202.53
2022-10-09T12:51:28.570Z,100199.16
2022-10-09T12:53:04.350Z,100198.88
2022-10-09T12:54:43.044Z,100200.94
2022-10-09T12:56:25.553Z,100203.25
2022-10-09T12:58:03.937Z,100188.03
2022-10-09T12:59:36.377Z,100194.69
2022-10-09T13:01:14.189Z,100194.16
2022-10-09T13:02:46.720Z,100193.94
2022-10-09T13:04:28.647Z,100186.97
2022-10-09T13:06:02.276Z,100192.50
2022-10-09T13:07:34.776Z,100192.91
2022-10-09T13:09:08.243Z,100201.88
2022-10-09T13:10:40.538Z,100192.47
2022-10-09T13:12:22.778Z,100189.53
2022-10-09T13:13:55.605Z,100188.97
2022-10-09T13:15:37.849Z,100192.91
2022-10-09T13:17:33.057Z,100195.22
2022-10-09T13:19:05.493Z,100195.44
2022-10-09T13:20:37.796Z,100194.59
2022-10-09T13:22:21.638Z,100188.66
2022-10-09T13:23:54.253Z,100185.16
2022-10-09T13:25:29.006Z,100184.75
2022-10-09T13:27:01.337Z,100186.50
2022-10-09T13:28:33.790Z,100192.22
2022-10-09T13:30:07.438Z,100185.22
2022-10-09T13:31:43.734Z,100181.81
2022-10-09T13:33:17.197Z,100181.16
2022-10-09T13:34:49.415Z,100180.44
2022-10-09T13:36:21.665Z,100181.16
2022-10-09T13:37:54.039Z,100181.16
2022-10-09T13:39:26.548Z,100183.94
2022-10-09T13:40:59.242Z,100185.63
2022-10-09T13:42:37.329Z,100181.81
2022-10-09T13:44:09.662Z,100189.09
2022-10-09T13:45:42.659Z,100192.41
2022-10-09T13:47:15.215Z,100185.22
2022-10-09T13:48:47.491Z,100185.72
2022-10-09T13:50:20.234Z,100191.88
2022-10-09T13:51:52.633Z,100185.94
2022-10-09T13:53:24.996Z,100192.41
2022-10-09T13:54:57.326Z,100194.94
2022-10-09T13:56:30.029Z,100190.50
2022-10-09T13:58:02.260Z,100199.38
2022-10-09T13:59:34.828Z,100187.31
2022-10-09T14:01:09.638Z,100189.00
2022-10-09T14:02:42.058Z,100194.50
2022-10-09T14:04:14.288Z,100189.41
2022-10-09T14:05:46.413Z,100190.47
2022-10-09T14:07:18.999Z,100194.03
2022-10-09T14:08:51.586Z,100198.91
2022-10-09T14:10:24.135Z,100191.81
2022-10-09T14:11:56.638Z,100192.78
2022-10-09T14:13:32.716Z,100188.97
2022-10-09T14:15:05.682Z,100196.47
2022-10-09T14:16:38.022Z,100189.69
2022-10-09T14:18:10.369Z,100197.50
2022-10-09T14:19:42.786Z,100197.63
2022-10-09T14:21:16.321Z,100194.09
2022-10-09T14:22:48.835Z,100194.22
2022-10-09T14:24:21.359Z,100192.53
2022-10-09T14:25:53.579Z,100196.31
2022-10-09T14:27:25.942Z,100186.16
2022-10-09T14:29:00.487Z,100187.28
2022-10-09T14:32:09.522Z,100192.78
2022-10-09T14:33:42.272Z,100192.88
2022-10-09T14:35:17.114Z,100188.94
2022-10-09T14:36:53.776Z,100188.09
2022-10-09T14:38:26.090Z,100182.06
2022-10-09T14:39:58.497Z,100183.94
2022-10-09T14:41:34.290Z,100191.88
2022-10-09T14:43:09.178Z,100191.78
2022-10-09T14:44:41.745Z,100193.66
2022-10-09T14:46:17.585Z,100185.66
2022-10-09T14:47:49.901Z,100191.88
2022-10-09T14:49:25.280Z,100197.16
2022-10-09T14:51:03.287Z,100193.97
2022-10-09T14:52:35.569Z,100191.69
2022-10-09T14:54:08.645Z,100192.75
2022-10-09T14:55:40.991Z,100194.53
2022-10-09T14:57:13.567Z,100193.13
2022-10-09T14:58:46.540Z,100199.63
2022-10-09T15:00:18.946Z,100198.13
2022-10-09T15:01:51.276Z,100198.44
2022-10-09T15:03:23.853Z,100196.00
2022-10-09T15:04:56.396Z,100199.66
2022-10-09T15:06:28.633Z,100201.75
2022-10-09T15:08:01.172Z,100199.28
2022-10-09T15:09:33.460Z,100201.38
2022-10-09T15:11:06.691Z,100202.41
2022-10-09T15:12:38.851Z,100201.44
2022-10-09T15:14:11.479Z,100206.44
2022-10-09T15:15:43.686Z,100197.22
2022-10-09T15:17:16.020Z,100208.22
2022-10-09T15:18:52.629Z,100208.44
2022-10-09T15:20:25.153Z,100215.16
2022-10-09T15:21:57.398Z,100213.81
2022-10-09T15:23:30.306Z,100219.47
2022-10-09T15:25:02.866Z,100214.81
2022-10-09T15:26:38.957Z,100223.09
2022-10-09T15:28:11.539Z,100225.44
2022-10-09T15:29:43.833Z,100224.19
2022-10-09T15:31:33.914Z,100227.06
2022-10-09T15:33:06.262Z,100232.94
2022-10-09T15:34:40.995Z,100227.25
2022-10-09T15:36:13.606Z,100228.72
2022-10-09T15:37:45.818Z,100228.25
2022-10-09T15:40:51.985Z,100224.13
2022-10-09T15:42:24.306Z,100229.03
2022-10-09T15:44:02.038Z,100236.50
2022-10-09T15:45:35.466Z,100233.50
2022-10-09T15:47:07.949Z,100237.59
2022-10-09T15:48:40.423Z,100244.94
2022-10-09T15:50:12.811Z,100233.19
2022-10-09T15:51:45.352Z,100243.25
2022-10-09T15:53:22.972Z,100240.84
2022-10-09T15:54:55.303Z,100242.34
2022-10-09T15:56:28.276Z,100241.97
2022-10-09T15:58:00.534Z,100252.09
2022-10-09T15:59:36.591Z,100243.84
2022-10-09T16:01:11.585Z,100248.63
2022-10-09T16:02:43.974Z,100246.69
2022-10-09T16:04:16.370Z,100255.09
2022-10-09T16:05:53.324Z,100256.44
2022-10-09T16:07:25.735Z,100257.16
2022-10-09T16:08:58.878Z,100260.94
2022-10-09T16:10:31.337Z,100269.22
2022-10-09T16:12:04.214Z,100268.72
2022-10-09T16:13:42.514Z,100274.13
2022-10-09T16:15:14.840Z,100275.47
2022-10-09T16:16:48.976Z,100278.38
2022-10-09T16:18:23.179Z,100278.53
2022-10-09T16:19:55.627Z,100284.31
2022-10-09T16:21:29.419Z,100285.09
2022-10-09T16:23:01.895Z,100286.53
2022-10-09T16:24:34.363Z,100283.59
2022-10-09T16:26:06.888Z,100290.25
2022-10-09T16:27:39.176Z,100289.56
2022-10-09T16:29:11.618Z,100297.69
2022-10-09T16:30:45.054Z,100300.50
2022-10-09T16:32:17.213Z,100293.56
2022-10-09T16:33:49.679Z,100297.34
2022-10-09T16:35:23.066Z,100302.72
2022-10-09T16:36:55.739Z,100305.41
2022-10-09T16:38:28.068Z,100301.41
2022-10-09T16:40:00.703Z,100300.91
2022-10-09T16:41:33.198Z,100307.38
2022-10-09T16:43:05.574Z,100306.75
2022-10-09T16:44:38.112Z,100310.41
2022-10-09T16:46:19.974Z,100320.94
2022-10-09T16:47:52.411Z,100324.78
2022-10-09T16:49:25.193Z,100323.25
2022-10-09T16:50:58.882Z,100322.53
2022-10-09T16:52:31.183Z,100322.88
2022-10-09T16:54:05.422Z,100329.06
2022-10-09T16:55:37.997Z,100332.94
2022-10-09T16:57:10.398Z,100328.91
2022-10-09T16:58:43.756Z,100339.59
2022-10-09T17:00:19.106Z,100340.56
2022-10-09T17:01:51.977Z,100343.50
2022-10-09T17:03:24.323Z,100347.28
2022-10-09T17:04:56.628Z,100340.41
2022-10-09T17:06:29.036Z,100344.84
2022-10-09T17:08:13.486Z,100326.97
2022-10-09T17:09:45.578Z,100349.53
2022-10-09T17:11:21.291Z,100354.22
2022-10-09T17:12:53.519Z,100351.09
2022-10-09T17:14:25.616Z,100355.63
2022-10-09T17:15:57.965Z,100361.09
2022-10-09T17:17:30.232Z,100353.50
2022-10-09T17:19:03.175Z,100352.75
2022-10-09T17:20:39.364Z,100358.06
2022-10-09T17:22:11.713Z,100361.75
2022-10-09T17:23:44.211Z,100358.44
2022-10-09T17:25:16.572Z,100364.66
2022-10-09T17:26:49.175Z,100362.94
2022-10-09T17:28:21.916Z,100363.94
2022-10-09T17:29:56.624Z,100367.50
2022-10-09T17:31:29.439Z,100370.16
2022-10-09T17:33:02.760Z,100372.09
2022-10-09T17:34:35.090Z,100378.34
2022-10-09T17:36:11.508Z,100372.38
2022-10-09T17:37:43.759Z,100368.09
2022-10-09T17:39:17.294Z,100371.66
2022-10-09T17:40:49.648Z,100378.84
2022-10-09T17:42:21.943Z,100382.47
2022-10-09T17:43:56.139Z,100380.75
2022-10-09T17:45:28.352Z,100385.16
2022-10-09T17:47:01.390Z,100382.59
2022-10-09T17:48:35.091Z,100384.41
2022-10-09T17:50:08.027Z,100385.25
2022-10-09T17:51:40.838Z,100389.66
2022-10-09T17:53:14.907Z,100386.31
2022-10-09T17:54:47.228Z,100389.78
2022-10-09T17:56:19.565Z,100388.94
2022-10-09T17:57:53.814Z,100394.19
2022-10-09T17:59:26.227Z,100390.66
2022-10-09T18:00:58.629Z,100390.56
2022-10-09T18:02:31.138Z,100400.94
2022-10-09T18:04:03.588Z,100393.06
2022-10-09T18:05:46.662Z,100398.16
2022-10-09T18:07:20.583Z,100398.22
2022-10-09T18:08:55.394Z,100398.97
2022-10-09T18:10:27.712Z,100400.75
2022-10-09T18:12:00.047Z,100396.47
2022-10-09T18:13:32.500Z,100404.31
2022-10-09T18:15:05.319Z,100404.28
2022-10-09T18:16:38.851Z,100397.41
2022-10-09T18:18:12.258Z,100405.25
2022-10-09T18:19:44.580Z,100402.56
2022-10-09T18:21:18.027Z,100407.06
2022-10-09T18:22:50.374Z,100407.91
2022-10-09T18:24:22.661Z,100404.75
2022-10-09T18:25:54.896Z,100404.84
2022-10-09T18:27:29.408Z,100405.81
2022-10-09T18:29:01.931Z,100407.56
2022-10-09T18:30:34.593Z,100410.13
2022-10-09T18:32:07.027Z,100411.88
2022-10-09T18:33:39.471Z,100410.97
2022-10-09T18:35:11.848Z,100415.22
2022-10-09T18:36:44.501Z,100405.66
2022-10-09T18:38:17.372Z,100405.63
2022-10-09T18:39:49.834Z,100409.16
2022-10-09T18:41:23.389Z,100413.41
2022-10-09T18:42:55.737Z,100416.97
2022-10-09T18:44:28.138Z,100410.84
2022-10-09T18:46:01.298Z,100423.75
2022-10-09T18:47:35.036Z,100420.22
2022-10-09T18:49:09.735Z,100420.25
2022-10-09T18:50:42.283Z,100416.06
2022-10-09T18:52:15.003Z,100420.44